Flint, MI (48550)

2:10 AM EDT on August 03, 2015 (GMT -0400)
Genesee/Gregor St. | | Change Station
CLOSE
Current Station
Personal Weather Station
Location: Mount Morris, MI
Elevation: 755 ft
Nearby Weather Stations

Elev 755 ft 43.11 °N, 83.63 °W | Updated 41 seconds ago

Overcast
Overcast
62.1 °F
Feels Like 62.1 °F
N
0.0
Wind Variable Wind from NNW
Gusts 0.0 mph

Today
High -- | Low -- °F
--% Chance of Precip.
Yesterday
High -- | Low -- °F
Precip. -- in
6:27 AM 8:53 PM
Waning Gibbous, 89% visible
Pressure 29.68 in
Visibility 10.0 miles
Clouds Mostly Cloudy 1500 ft
Overcast 4300 ft
Dew Point 54 °F
Humidity 75%
Rainfall 0.00 in
Snow Depth Not available.
UV 0 out of 12
Pollen 8.40 out of 12
Air Quality Not available.
Flu Activity Not available.
METAR KFNT 030553Z AUTO 20006KT 10SM BKN015 OVC043 18/16 A2969 RMK AO2 RAE06 SLP049 P0000 60133 T01830161 10206 20172 53018

More Conditions Fewer Conditions

Pressure 29.68 in
Visibility 10.0 miles
Clouds Mostly Cloudy 1500 ft
Overcast 4300 ft
Dew Point 54 °F
Humidity 75%
Rainfall 0.00 in
Snow Depth Not available.
UV 0 out of 12
Pollen 8.40 out of 12
Air Quality Not available.
Flu Activity Not available.
METAR KFNT 030553Z AUTO 20006KT 10SM BKN015 OVC043 18/16 A2969 RMK AO2 RAE06 SLP049 P0000 60133 T01830161 10206 20172 53018

More Conditions Fewer Conditions

10-Day Weather Forecast

×

Almanac

Astronomy

Aug. 03, 2015 Rise Set
Actual Time
Civil Twilight
Nautical Twilight
Astronomical Twilight
Moon
Length of Visible Light
Length of Day
Tomorrow will be .
, % of the Moon is Illuminated

Today's Extremes

State Highs State Lows

Community

WunderPhotos

Upload Photos

1,843,588 photos uploaded!

WunderBlogs® & News

Nearby

Air Quality

  Air Quality AQ Index Pollutant
Not available.

Snow Depth

Station Depth Elevation

Earthquake Activity

City Distance Mag. Time & Date
Minimum magnitude displayed is 2.5.

Coastal Water Temperatures

Place Temperature

Stations

Nearby Weather Stations

Station Location Temp. Windchill Dew Point Humidity Wind Precip. Elev Updated Type